Time;durP1;ratioP1;P1;durP2;ratioP2;P2;SDS_P1;SDS_P2;PMS_P1;PMS_P2;Temp;Humidity;BMP_temperature;BMP_pressure;BME280_temperature;BME280_humidity;BME280_pressure;Samples;Min_cycle;Max_cycle;Signal;HPM_P1;HPM_P2
2023/04/17 00:00:49;;;;;;;5.95;1.10;;;12.70;85.30;;;;;;7427009;19;19981;-80
2023/04/17 00:03:15;;;;;;;6.03;0.80;;;12.80;86.10;;;;;;7371123;19;19914;-80
2023/04/17 00:05:44;;;;;;;3.80;1.13;;;12.80;85.60;;;;;;7425273;19;19919;-81
2023/04/17 00:08:11;;;;;;;7.40;1.10;;;12.70;86.00;;;;;;7421266;19;19910;-81
2023/04/17 00:10:37;;;;;;;7.88;1.20;;;12.60;87.10;;;;;;7424388;19;19922;-81
2023/04/17 00:13:03;;;;;;;7.70;1.40;;;12.60;88.00;;;;;;7423776;19;19918;-80
2023/04/17 00:15:29;;;;;;;6.00;1.05;;;12.50;89.20;;;;;;7423476;19;19931;-80
2023/04/17 00:17:55;;;;;;;9.77;2.53;;;12.60;87.90;;;;;;7426139;19;19911;-80
2023/04/17 00:20:21;;;;;;;4.93;1.00;;;12.60;87.20;;;;;;7422883;19;19927;-82
2023/04/17 00:22:47;;;;;;;5.40;1.45;;;12.50;86.60;;;;;;7425924;19;19923;-81
2023/04/17 00:25:13;;;;;;;5.95;0.90;;;12.40;87.00;;;;;;7420296;19;19914;-81
2023/04/17 00:27:42;;;;;;;5.18;1.15;;;12.30;87.20;;;;;;7427415;19;19930;-81
2023/04/17 00:30:09;;;;;;;6.25;1.45;;;12.30;87.10;;;;;;7421713;19;20523;-81
2023/04/17 00:32:34;;;;;;;3.50;0.90;;;12.20;86.70;;;;;;7420515;19;19922;-82
2023/04/17 00:35:00;;;;;;;3.78;1.00;;;12.20;86.50;;;;;;7421438;19;19906;-81
2023/04/17 00:37:26;;;;;;;4.32;1.00;;;12.10;86.90;;;;;;7421566;19;19914;-81
2023/04/17 00:39:52;;;;;;;4.13;1.00;;;12.10;86.70;;;;;;7423740;19;19910;-80
2023/04/17 00:42:18;;;;;;;6.90;1.80;;;12.10;86.50;;;;;;7421609;19;20241;-81
2023/04/17 00:44:44;;;;;;;6.55;1.38;;;12.30;85.20;;;;;;7420472;19;19919;-80
2023/04/17 00:47:10;;;;;;;4.63;1.00;;;12.20;84.20;;;;;;7370430;19;19918;-81
2023/04/17 00:49:36;;;;;;;5.53;1.20;;;12.20;84.60;;;;;;7424533;19;19910;-81
2023/04/17 00:52:03;;;;;;;4.55;1.10;;;12.20;83.40;;;;;;7422070;19;19942;-80
2023/04/17 00:54:30;;;;;;;4.97;1.15;;;12.30;81.50;;;;;;7423744;19;19926;-81
2023/04/17 00:56:57;;;;;;;3.13;0.52;;;12.40;79.40;;;;;;7423854;19;20006;-80
2023/04/17 00:59:23;;;;;;;4.75;0.80;;;12.40;78.40;;;;;;7420408;19;19962;-81
2023/04/17 01:01:49;;;;;;;5.38;0.80;;;12.30;79.50;;;;;;7421723;19;19935;-81
2023/04/17 01:04:15;;;;;;;3.03;0.80;;;12.40;77.70;;;;;;7422711;19;19915;-80
2023/04/17 01:06:41;;;;;;;5.97;0.90;;;12.40;76.00;;;;;;7422098;19;19979;-81
2023/04/17 01:09:07;;;;;;;4.85;0.82;;;12.30;77.00;;;;;;7420348;19;19923;-82
2023/04/17 01:11:33;;;;;;;3.60;0.73;;;12.10;78.40;;;;;;7370414;19;19982;-80
2023/04/17 01:13:59;;;;;;;4.82;1.20;;;12.10;83.80;;;;;;7425688;19;19919;-81
2023/04/17 01:16:26;;;;;;;3.22;0.80;;;12.10;85.30;;;;;;7419948;19;19959;-81
2023/04/17 01:18:52;;;;;;;6.50;1.13;;;12.10;86.40;;;;;;7418015;19;19915;-81
2023/04/17 01:21:19;;;;;;;4.85;1.25;;;12.10;86.60;;;;;;7422318;19;19919;-81
2023/04/17 01:23:53;;;;;;;5.35;1.02;;;12.10;85.80;;;;;;7422268;19;19926;-80
2023/04/17 01:26:23;;;;;;;5.38;1.10;;;12.10;86.70;;;;;;7420318;19;19952;-80
2023/04/17 01:28:57;;;;;;;5.25;1.08;;;12.00;84.40;;;;;;7421855;19;19918;-80
2023/04/17 01:31:23;;;;;;;5.82;1.13;;;11.90;83.10;;;;;;7421523;19;20096;-81
2023/04/17 01:33:50;;;;;;;4.32;0.80;;;12.00;84.00;;;;;;7422425;19;19914;-81
2023/04/17 01:36:16;;;;;;;4.75;1.05;;;12.10;82.70;;;;;;7423310;19;19933;-81
2023/04/17 01:38:43;;;;;;;3.45;0.68;;;12.00;82.90;;;;;;7422610;19;19919;-81
2023/04/17 01:41:09;;;;;;;4.05;1.02;;;12.10;78.10;;;;;;7424056;19;19938;-80
2023/04/17 01:43:40;;;;;;;6.30;0.90;;;12.00;76.40;;;;;;7422334;19;19918;-80
2023/04/17 01:46:06;;;;;;;4.85;0.70;;;11.90;73.90;;;;;;7420772;19;19926;-79
2023/04/17 01:48:33;;;;;;;4.70;0.98;;;11.90;73.10;;;;;;7422881;19;19915;-79
2023/04/17 01:50:59;;;;;;;4.28;0.93;;;12.00;72.60;;;;;;7419438;19;20269;-80
2023/04/17 01:53:26;;;;;;;3.83;0.70;;;11.90;72.70;;;;;;7421502;19;19915;-80
2023/04/17 01:55:52;;;;;;;5.60;0.95;;;11.80;70.60;;;;;;7422879;19;20001;-80
2023/04/17 01:58:18;;;;;;;4.55;0.80;;;11.80;70.40;;;;;;7416405;19;19918;-80
2023/04/17 02:00:49;;;;;;;3.17;0.80;;;11.80;70.90;;;;;;7420264;19;19917;-80
2023/04/17 02:03:15;;;;;;;4.90;0.60;;;11.90;68.00;;;;;;7417703;19;19919;-80
2023/04/17 02:05:46;;;;;;;1.50;0.50;;;11.90;68.30;;;;;;7418696;19;19972;-80
2023/04/17 02:08:15;;;;;;;3.53;0.70;;;11.80;68.50;;;;;;7419800;19;19926;-80
2023/04/17 02:10:41;;;;;;;3.35;0.63;;;11.80;68.60;;;;;;7422564;19;19921;-80
2023/04/17 02:13:07;;;;;;;2.33;0.60;;;11.80;70.30;;;;;;7419133;19;19919;-80
2023/04/17 02:15:33;;;;;;;6.25;0.90;;;11.80;70.90;;;;;;7422828;19;19922;-80
2023/04/17 02:18:00;;;;;;;3.75;0.73;;;11.70;71.90;;;;;;7424086;19;19926;-81
2023/04/17 02:20:27;;;;;;;2.33;0.50;;;11.80;72.50;;;;;;7420889;19;19934;-81
2023/04/17 02:22:52;;;;;;;2.33;0.68;;;11.90;67.70;;;;;;7420535;19;19929;-81
2023/04/17 02:25:18;;;;;;;3.97;0.47;;;11.80;66.40;;;;;;7420148;19;19924;-80
2023/04/17 02:27:44;;;;;;;3.80;0.80;;;11.80;65.80;;;;;;7422543;19;19929;-79
2023/04/17 02:30:10;;;;;;;2.22;0.40;;;11.80;65.00;;;;;;7417860;19;19919;-80
2023/04/17 02:32:36;;;;;;;4.68;0.47;;;11.80;65.00;;;;;;7419457;19;19954;-81
2023/04/17 02:35:02;;;;;;;3.38;0.55;;;11.80;64.30;;;;;;7418712;19;19974;-81
2023/04/17 02:37:29;;;;;;;4.95;0.70;;;11.70;66.40;;;;;;7418316;19;19915;-81
2023/04/17 02:39:55;;;;;;;2.72;0.50;;;11.60;68.30;;;;;;7420034;19;19943;-80
2023/04/17 02:42:20;;;;;;;2.67;0.55;;;11.60;66.20;;;;;;7422041;19;19918;-80
2023/04/17 02:44:46;;;;;;;3.25;0.77;;;11.50;65.40;;;;;;7421637;19;20346;-80
2023/04/17 02:47:12;;;;;;;1.95;0.50;;;11.40;66.90;;;;;;7421488;19;19907;-81
2023/04/17 02:49:38;;;;;;;1.85;0.35;;;11.50;67.20;;;;;;7419339;19;19914;-80
2023/04/17 02:52:04;;;;;;;2.78;0.40;;;11.40;65.90;;;;;;7417912;19;19910;-80
2023/04/17 02:54:29;;;;;;;2.60;0.50;;;11.30;65.00;;;;;;7420893;19;19907;-80
2023/04/17 02:56:58;;;;;;;3.90;0.60;;;11.40;65.50;;;;;;7417827;19;19938;-79
2023/04/17 02:59:25;;;;;;;3.47;0.70;;;11.40;64.70;;;;;;7419629;19;19918;-79
2023/04/17 03:01:50;;;;;;;3.05;0.68;;;11.40;65.10;;;;;;7421489;19;19921;-78
2023/04/17 03:04:18;;;;;;;2.88;0.68;;;11.30;64.50;;;;;;7419020;19;19922;-80
2023/04/17 03:06:45;;;;;;;3.15;0.60;;;11.30;64.30;;;;;;7419148;19;19926;-79
2023/04/17 03:09:13;;;;;;;3.13;0.40;;;11.40;62.60;;;;;;7415965;19;19922;-79
2023/04/17 03:11:39;;;;;;;2.80;0.60;;;11.50;61.80;;;;;;7417443;19;19971;-80
2023/04/17 03:14:05;;;;;;;1.98;0.40;;;11.40;62.30;;;;;;7410184;19;19929;-79
2023/04/17 03:16:31;;;;;;;2.25;0.60;;;11.50;62.80;;;;;;7415954;19;19915;-79
2023/04/17 03:18:56;;;;;;;2.58;0.60;;;11.40;62.20;;;;;;7413510;19;19919;-80
2023/04/17 03:21:22;;;;;;;2.22;0.68;;;11.30;62.50;;;;;;7414608;19;19978;-79
2023/04/17 03:23:48;;;;;;;3.22;0.52;;;11.30;62.90;;;;;;7418730;19;19927;-79
2023/04/17 03:26:14;;;;;;;3.35;0.50;;;11.30;62.80;;;;;;7414734;19;19906;-79
2023/04/17 03:28:39;;;;;;;3.60;0.63;;;11.30;61.80;;;;;;7417697;19;19922;-79
2023/04/17 03:31:06;;;;;;;2.08;0.77;;;11.30;61.40;;;;;;7413170;19;19915;-80
2023/04/17 03:33:31;;;;;;;2.55;0.52;;;11.30;60.60;;;;;;7416998;19;19922;-79
2023/04/17 03:35:57;;;;;;;3.05;0.40;;;11.40;59.40;;;;;;7413984;19;19915;-79
2023/04/17 03:38:23;;;;;;;2.88;0.50;;;11.40;59.40;;;;;;7413967;19;19911;-79
2023/04/17 03:40:49;;;;;;;2.10;0.60;;;11.30;59.80;;;;;;7413481;19;19919;-79
2023/04/17 03:43:15;;;;;;;2.35;0.50;;;11.20;60.40;;;;;;7413264;19;19911;-79
2023/04/17 03:45:40;;;;;;;2.15;0.60;;;11.20;59.80;;;;;;7413532;19;19922;-78
2023/04/17 03:48:06;;;;;;;3.75;0.60;;;11.20;60.00;;;;;;7377888;19;19919;-79
2023/04/17 03:50:32;;;;;;;3.60;0.70;;;11.10;60.00;;;;;;7414354;19;19914;-79
2023/04/17 03:52:59;;;;;;;3.72;0.93;;;11.10;60.70;;;;;;7414757;19;20242;-79
2023/04/17 03:55:25;;;;;;;4.95;1.05;;;11.10;61.70;;;;;;7411830;19;19922;-79
2023/04/17 03:57:51;;;;;;;2.78;0.77;;;11.10;61.10;;;;;;7413349;19;19930;-79
2023/04/17 04:00:17;;;;;;;2.20;0.50;;;11.10;60.80;;;;;;7412504;19;19978;-79
2023/04/17 04:02:43;;;;;;;2.65;0.63;;;11.00;60.80;;;;;;7410254;19;19926;-79
2023/04/17 04:05:09;;;;;;;3.08;0.70;;;11.00;61.60;;;;;;7410079;19;19943;-80
2023/04/17 04:07:34;;;;;;;4.85;0.80;;;11.00;62.10;;;;;;7417174;19;19919;-79
2023/04/17 04:10:00;;;;;;;2.50;0.60;;;11.00;62.90;;;;;;7417884;19;19919;-79
2023/04/17 04:12:26;;;;;;;4.07;0.80;;;11.00;64.70;;;;;;7415381;19;19922;-80
2023/04/17 04:14:52;;;;;;;2.60;0.70;;;10.90;65.10;;;;;;7414104;19;19915;-79
2023/04/17 04:17:18;;;;;;;4.38;0.90;;;10.90;65.70;;;;;;7414821;19;19926;-79
2023/04/17 04:19:44;;;;;;;4.25;0.70;;;11.10;64.60;;;;;;7416033;19;19914;-79
2023/04/17 04:22:12;;;;;;;3.50;0.73;;;11.10;63.90;;;;;;7411059;19;19930;-80
2023/04/17 04:24:39;;;;;;;3.50;0.43;;;11.20;63.10;;;;;;7411459;19;19914;-80
2023/04/17 04:27:07;;;;;;;2.67;0.70;;;11.30;61.90;;;;;;7414925;19;19915;-79
2023/04/17 04:29:34;;;;;;;3.17;0.85;;;11.30;61.60;;;;;;7418593;19;19930;-79
2023/04/17 04:32:00;;;;;;;3.47;0.70;;;11.20;61.60;;;;;;7421309;19;19919;-79
2023/04/17 04:34:28;;;;;;;2.90;0.60;;;11.10;61.80;;;;;;7391624;19;19914;-80
2023/04/17 04:36:55;;;;;;;4.03;0.90;;;11.10;62.40;;;;;;7424404;19;19925;-81
2023/04/17 04:39:21;;;;;;;5.15;0.90;;;11.10;61.80;;;;;;7420783;19;19922;-80
2023/04/17 04:41:50;;;;;;;4.70;0.70;;;11.10;61.00;;;;;;7422932;19;20042;-79
2023/04/17 04:44:16;;;;;;;;;;;11.20;59.90;;;;;;7420587;19;19910;-82
2023/04/17 04:46:42;;;;;;;3.55;0.80;;;11.10;59.50;;;;;;7420571;19;19931;-79
2023/04/17 04:49:08;;;;;;;2.45;0.80;;;11.10;57.90;;;;;;7417982;19;19915;-80
2023/04/17 04:51:35;;;;;;;2.60;0.90;;;11.00;57.90;;;;;;7422533;19;19939;-79
2023/04/17 04:54:01;;;;;;;4.63;1.42;;;11.00;59.00;;;;;;7421520;19;19927;-79
2023/04/17 04:56:27;;;;;;;4.82;0.80;;;11.00;59.10;;;;;;7417599;19;19931;-79
2023/04/17 04:58:55;;;;;;;5.63;1.08;;;10.90;59.10;;;;;;7418847;19;20278;-79
2023/04/17 05:01:21;;;;;;;3.80;0.80;;;11.00;58.10;;;;;;7419012;19;19918;-80
2023/04/17 05:03:48;;;;;;;3.40;0.90;;;11.10;57.70;;;;;;7418481;19;19910;-79
2023/04/17 05:06:14;;;;;;;4.18;0.80;;;11.10;58.90;;;;;;7418489;19;19915;-79
2023/04/17 05:08:40;;;;;;;4.10;0.77;;;11.10;59.50;;;;;;7421514;19;19914;-79
2023/04/17 05:11:06;;;;;;;3.83;0.90;;;11.10;59.70;;;;;;7418046;19;19925;-79
2023/04/17 05:13:32;;;;;;;4.35;0.90;;;11.20;59.90;;;;;;7418223;19;19951;-79
2023/04/17 05:15:57;;;;;;;5.57;1.10;;;11.10;59.70;;;;;;7418915;19;20436;-79
2023/04/17 05:18:23;;;;;;;3.38;0.70;;;11.10;59.50;;;;;;7417502;19;19951;-79
2023/04/17 05:20:50;;;;;;;6.68;1.00;;;11.40;58.80;;;;;;7420075;19;19910;-81
2023/04/17 05:23:19;;;;;;;3.85;1.23;;;11.30;58.70;;;;;;7417690;19;19929;-80
2023/04/17 05:25:45;;;;;;;5.25;0.90;;;11.40;58.60;;;;;;7419517;19;19982;-79
2023/04/17 05:28:11;;;;;;;4.70;1.00;;;11.40;58.70;;;;;;7417600;19;19964;-79
2023/04/17 05:30:37;;;;;;;5.57;0.93;;;11.40;59.00;;;;;;7421044;19;19938;-80
2023/04/17 05:33:03;;;;;;;4.72;1.05;;;11.40;61.50;;;;;;7421689;19;19922;-82
2023/04/17 05:35:30;;;;;;;5.93;1.20;;;11.50;63.00;;;;;;7423080;19;19921;-81
2023/04/17 05:37:56;;;;;;;;;;;11.50;61.60;;;;;;7423813;19;19919;-81
2023/04/17 05:40:22;;;;;;;5.40;1.00;;;11.50;62.00;;;;;;7420365;19;20251;-79
2023/04/17 05:42:49;;;;;;;5.78;1.05;;;11.50;61.90;;;;;;7423267;19;19990;-80
2023/04/17 05:45:16;;;;;;;5.63;1.42;;;11.60;61.70;;;;;;7420834;19;19919;-80
2023/04/17 05:47:43;;;;;;;6.07;1.20;;;11.60;62.00;;;;;;7423528;19;19914;-80
2023/04/17 05:50:09;;;;;;;4.63;1.25;;;11.70;62.50;;;;;;7423325;19;19923;-80
2023/04/17 05:52:36;;;;;;;4.47;1.13;;;11.80;64.00;;;;;;7422703;19;19946;-80
2023/04/17 05:55:03;;;;;;;6.13;1.90;;;11.90;66.60;;;;;;7425273;19;20335;-80
2023/04/17 05:57:29;;;;;;;7.50;1.60;;;11.90;67.80;;;;;;7421996;19;19917;-80
2023/04/17 05:59:55;;;;;;;7.95;2.80;;;12.00;68.40;;;;;;7422589;19;19946;-79
2023/04/17 06:02:21;;;;;;;7.18;2.20;;;12.10;70.70;;;;;;7422228;19;19921;-80
2023/04/17 06:04:46;;;;;;;5.85;2.20;;;12.10;71.00;;;;;;7421935;19;19933;-80
2023/04/17 06:07:12;;;;;;;10.32;2.65;;;12.20;71.10;;;;;;7421137;19;20725;-82
2023/04/17 06:09:39;;;;;;;6.13;1.83;;;12.30;71.50;;;;;;7421868;19;19911;-80
2023/04/17 06:12:06;;;;;;;7.50;1.85;;;12.40;70.60;;;;;;7420520;19;20005;-81
2023/04/17 06:14:32;;;;;;;5.95;1.80;;;12.40;68.80;;;;;;7424555;19;20302;-80
2023/04/17 06:16:59;;;;;;;7.28;1.95;;;12.50;67.90;;;;;;7422725;19;19933;-80
2023/04/17 06:19:25;;;;;;;9.80;2.45;;;12.60;65.60;;;;;;7421883;19;21215;-81
2023/04/17 06:21:51;;;;;;;5.13;1.45;;;12.60;64.70;;;;;;7420667;19;19923;-79
2023/04/17 06:24:17;;;;;;;6.00;1.50;;;12.70;63.50;;;;;;7385792;19;19923;-80
2023/04/17 06:26:43;;;;;;;7.35;1.67;;;12.80;62.20;;;;;;7421980;19;19915;-79
2023/04/17 06:29:09;;;;;;;4.13;1.13;;;13.00;60.80;;;;;;7421561;19;19918;-80
2023/04/17 06:31:36;;;;;;;7.43;1.98;;;13.00;59.50;;;;;;7421882;19;19926;-81
2023/04/17 06:34:02;;;;;;;6.72;1.30;;;13.10;58.80;;;;;;7419874;19;20014;-80
2023/04/17 06:36:27;;;;;;;5.72;1.20;;;13.20;58.40;;;;;;7419893;19;19923;-80
2023/04/17 06:38:53;;;;;;;7.30;1.30;;;13.20;57.10;;;;;;7422026;19;19927;-80
2023/04/17 06:41:19;;;;;;;3.38;0.93;;;13.30;56.90;;;;;;7418683;19;19918;-79
2023/04/17 06:43:46;;;;;;;3.70;1.17;;;13.40;56.10;;;;;;7400785;19;19915;-80
2023/04/17 06:46:12;;;;;;;;;;;13.50;55.70;;;;;;7420389;19;19938;-80
2023/04/17 06:48:38;;;;;;;10.07;1.13;;;13.50;55.60;;;;;;7416207;19;19943;-78
2023/04/17 06:51:04;;;;;;;6.20;1.40;;;13.50;55.70;;;;;;7414481;19;19915;-78
2023/04/17 06:53:30;;;;;;;3.47;1.20;;;13.60;56.50;;;;;;7415568;19;19922;-79
2023/04/17 06:55:56;;;;;;;6.80;1.40;;;13.60;57.50;;;;;;7393962;19;20018;-78
2023/04/17 06:58:21;;;;;;;8.32;2.55;;;13.70;59.10;;;;;;7413903;19;20237;-79
2023/04/17 07:00:47;;;;;;;9.82;2.28;;;13.70;60.40;;;;;;7415400;19;19975;-79
2023/04/17 07:03:13;;;;;;;5.22;1.33;;;13.80;61.70;;;;;;7413688;19;19926;-79
2023/04/17 07:05:44;;;;;;;8.02;1.45;;;13.80;62.90;;;;;;7417627;19;19918;-81
2023/04/17 07:08:11;;;;;;;8.77;1.67;;;13.90;64.30;;;;;;7397237;19;19954;-80
2023/04/17 07:10:37;;;;;;;;;;;14.00;65.50;;;;;;7371956;19;19913;-79
2023/04/17 07:13:03;;;;;;;5.70;1.23;;;14.10;66.60;;;;;;7414331;19;19914;-79
2023/04/17 07:15:30;;;;;;;8.60;1.60;;;14.20;67.00;;;;;;7413548;19;19911;-79
2023/04/17 07:17:55;;;;;;;3.85;1.15;;;14.30;67.10;;;;;;7416175;19;20024;-78
2023/04/17 07:20:22;;;;;;;5.63;1.42;;;14.30;66.80;;;;;;7412676;19;19978;-79
2023/04/17 07:22:48;;;;;;;8.23;2.63;;;14.40;66.60;;;;;;7419037;19;19929;-79
2023/04/17 07:25:15;;;;;;;9.05;3.28;;;14.50;66.80;;;;;;7413003;19;19954;-78
2023/04/17 07:27:41;;;;;;;7.75;2.45;;;14.60;67.20;;;;;;7410158;19;19939;-78
2023/04/17 07:30:07;;;;;;;5.55;1.35;;;14.60;67.80;;;;;;7415053;19;19910;-79
2023/04/17 07:32:33;;;;;;;7.72;1.42;;;14.70;68.50;;;;;;7413577;19;19914;-79
2023/04/17 07:34:59;;;;;;;8.00;1.30;;;14.80;69.10;;;;;;7415154;19;19938;-79
2023/04/17 07:37:25;;;;;;;5.45;1.40;;;14.90;71.20;;;;;;7415536;19;19922;-79
2023/04/17 07:39:52;;;;;;;6.60;1.48;;;14.90;72.60;;;;;;7416638;19;19919;-78
2023/04/17 07:42:18;;;;;;;5.63;1.35;;;14.90;73.80;;;;;;7417069;19;19923;-79
2023/04/17 07:44:45;;;;;;;5.07;1.42;;;14.90;73.90;;;;;;7415739;19;19915;-78
2023/04/17 07:47:11;;;;;;;6.68;1.73;;;15.00;74.20;;;;;;7412759;19;19972;-78
2023/04/17 07:49:39;;;;;;;3.78;1.20;;;15.10;73.50;;;;;;7417330;19;19911;-78
2023/04/17 07:52:05;;;;;;;7.72;1.70;;;15.10;73.60;;;;;;7407122;19;19925;-78
2023/04/17 07:54:31;;;;;;;3.92;1.40;;;15.10;73.90;;;;;;7411071;19;19974;-79
2023/04/17 07:57:01;;;;;;;4.95;1.95;;;15.10;74.50;;;;;;7393346;19;20011;-71
2023/04/17 07:59:27;;;;;;;8.38;1.80;;;15.20;74.60;;;;;;7380773;19;19930;-75
2023/04/17 08:01:56;;;;;;;5.93;2.25;;;15.30;74.80;;;;;;7359210;19;20674;-74
2023/04/17 08:04:23;;;;;;;7.90;1.83;;;15.30;74.70;;;;;;7392679;19;19952;-74
2023/04/17 08:06:49;;;;;;;8.27;1.98;;;15.40;74.70;;;;;;7400701;19;20034;-76
2023/04/17 08:09:15;;;;;;;7.28;1.98;;;15.40;74.50;;;;;;7401064;19;19927;-75
2023/04/17 08:11:42;;;;;;;8.73;1.80;;;15.50;73.90;;;;;;7406859;19;19932;-76
2023/04/17 08:14:10;;;;;;;;;;;15.50;74.10;;;;;;7406315;19;19918;-76
2023/04/17 08:16:36;;;;;;;8.27;1.55;;;15.60;74.40;;;;;;7407322;19;19941;-74
2023/04/17 08:19:03;;;;;;;7.10;1.73;;;15.70;73.50;;;;;;7405552;19;19922;-76
2023/04/17 08:21:29;;;;;;;10.70;2.17;;;15.80;72.30;;;;;;7394168;19;19911;-76
2023/04/17 08:23:55;;;;;;;9.15;2.20;;;15.80;74.50;;;;;;7384728;19;19930;-75
2023/04/17 08:26:21;;;;;;;8.65;2.35;;;15.90;74.80;;;;;;7397021;19;20215;-77
2023/04/17 08:28:47;;;;;;;8.85;2.05;;;16.00;74.30;;;;;;7400725;19;19911;-75
2023/04/17 08:31:13;;;;;;;8.30;2.38;;;16.10;74.10;;;;;;7396369;19;20002;-77
2023/04/17 08:33:39;;;;;;;9.25;2.60;;;16.20;76.80;;;;;;7402478;19;19923;-76
2023/04/17 08:36:08;;;;;;;16.13;6.78;;;17.00;76.80;;;;;;7398629;19;20338;-75
2023/04/17 08:38:34;;;;;;;5.70;2.10;;;19.20;73.80;;;;;;7401613;19;19925;-76
2023/04/17 08:41:05;;;;;;;7.65;2.17;;;20.00;70.70;;;;;;7395443;19;19961;-79
2023/04/17 08:43:34;;;;;;;5.80;2.00;;;20.20;67.70;;;;;;7392877;19;19918;-76
2023/04/17 08:45:59;;;;;;;6.18;1.73;;;20.90;66.50;;;;;;7395433;19;19966;-76
2023/04/17 08:48:25;;;;;;;7.68;2.10;;;21.30;66.00;;;;;;7379077;19;19939;-75
2023/04/17 08:50:53;;;;;;;7.63;2.00;;;22.10;64.80;;;;;;7400544;19;19935;-74
2023/04/17 08:53:19;;;;;;;7.00;2.40;;;22.20;61.80;;;;;;7403264;19;19917;-75
2023/04/17 08:55:47;;;;;;;8.63;1.65;;;22.60;60.60;;;;;;7402253;19;19914;-74
2023/04/17 08:58:14;;;;;;;5.35;2.15;;;22.60;58.70;;;;;;7401913;19;20628;-76
2023/04/17 09:00:42;;;;;;;7.63;1.73;;;22.40;59.90;;;;;;7402163;19;19922;-75
2023/04/17 09:03:10;;;;;;;7.28;1.80;;;21.90;58.50;;;;;;7399554;19;19922;-75
2023/04/17 09:05:40;;;;;;;5.38;1.88;;;22.40;59.80;;;;;;7400022;19;19915;-77
2023/04/17 09:08:09;;;;;;;5.80;1.80;;;23.00;57.50;;;;;;7396349;19;19918;-75
2023/04/17 09:10:40;;;;;;;9.88;2.20;;;23.30;55.20;;;;;;7401667;19;19918;-75
2023/04/17 09:13:07;;;;;;;5.13;1.65;;;23.30;55.30;;;;;;7390004;19;19978;-74
2023/04/17 09:15:34;;;;;;;8.25;1.85;;;22.70;56.40;;;;;;7393857;19;19914;-75
2023/04/17 09:18:00;;;;;;;5.22;1.90;;;23.10;57.00;;;;;;7400641;19;19936;-74
2023/04/17 09:20:26;;;;;;;6.40;1.98;;;23.00;56.30;;;;;;7395570;19;19907;-75
2023/04/17 09:23:01;;;;;;;6.07;1.58;;;22.50;56.30;;;;;;7398666;19;19932;-75
2023/04/17 09:25:28;;;;;;;5.47;1.70;;;22.70;55.80;;;;;;7378889;19;19918;-75
2023/04/17 09:28:00;;;;;;;7.22;1.90;;;22.10;56.90;;;;;;7393801;19;19970;-75
2023/04/17 09:30:26;;;;;;;8.95;1.83;;;20.90;58.90;;;;;;7397188;19;19923;-75
2023/04/17 09:33:05;;;;;;;4.88;1.50;;;21.20;59.80;;;;;;7394938;19;19914;-76
2023/04/17 09:35:31;;;;;;;5.85;2.40;;;20.90;60.40;;;;;;7395230;19;21692;-76
2023/04/17 09:38:00;;;;;;;5.78;1.70;;;21.40;61.30;;;;;;7399272;19;20163;-75
2023/04/17 09:40:34;;;;;;;8.30;2.08;;;21.70;59.60;;;;;;7376866;19;19915;-75
2023/04/17 09:43:05;;;;;;;6.75;1.73;;;21.10;62.30;;;;;;7397458;19;19926;-77
2023/04/17 09:45:34;;;;;;;6.97;2.03;;;20.50;63.70;;;;;;7394489;19;19915;-74
2023/04/17 09:48:01;;;;;;;9.20;2.53;;;20.60;65.20;;;;;;7404796;19;19918;-75
2023/04/17 09:50:27;;;;;;;5.70;1.90;;;19.80;67.60;;;;;;7397274;19;19923;-75
2023/04/17 09:52:54;;;;;;;7.88;2.05;;;20.90;67.20;;;;;;7381241;19;20711;-74
2023/04/17 09:55:22;;;;;;;11.77;2.35;;;20.80;67.30;;;;;;7389365;19;19922;-75
2023/04/17 09:57:53;;;;;;;7.65;2.05;;;21.20;67.70;;;;;;7399554;19;19918;-75
2023/04/17 10:00:22;;;;;;;6.47;2.22;;;20.60;69.40;;;;;;7399195;19;19999;-75
2023/04/17 10:02:52;;;;;;;10.75;2.80;;;20.40;71.20;;;;;;7403362;19;19914;-76
2023/04/17 10:05:19;;;;;;;8.98;2.33;;;19.80;72.20;;;;;;7399595;19;19919;-75
2023/04/17 10:07:45;;;;;;;8.27;2.10;;;19.40;75.10;;;;;;7404027;19;19935;-74
2023/04/17 10:10:21;;;;;;;8.48;2.03;;;20.20;73.70;;;;;;7394571;19;19959;-76
2023/04/17 10:12:48;;;;;;;11.23;2.22;;;21.90;71.50;;;;;;7398414;19;19915;-76
2023/04/17 10:15:15;;;;;;;12.23;2.63;;;22.50;68.90;;;;;;7397512;19;19919;-77
2023/04/17 10:17:41;;;;;;;9.73;2.42;;;22.70;68.60;;;;;;7401082;19;19926;-75
2023/04/17 10:20:19;;;;;;;9.20;2.35;;;23.10;68.20;;;;;;7402727;19;19918;-75
2023/04/17 10:22:55;;;;;;;7.90;1.70;;;22.70;69.00;;;;;;7389380;19;19965;-76
2023/04/17 10:25:25;;;;;;;7.63;1.88;;;22.20;70.90;;;;;;7396796;19;19925;-76
2023/04/17 10:28:03;;;;;;;10.32;1.70;;;21.90;71.50;;;;;;7398860;19;19914;-75
2023/04/17 10:30:52;;;;;;;6.53;1.45;;;20.70;72.70;;;;;;7396148;19;20369;-76
2023/04/17 10:33:21;;;;;;;7.50;2.10;;;21.20;73.30;;;;;;7397665;19;20953;-75
2023/04/17 10:35:47;;;;;;;5.85;1.95;;;21.10;73.50;;;;;;7384992;19;20266;-75
2023/04/17 10:38:15;;;;;;;5.93;2.03;;;21.40;72.30;;;;;;7386183;19;20021;-75
2023/04/17 10:40:42;;;;;;;6.35;1.60;;;21.60;71.00;;;;;;7399154;19;19919;-76
2023/04/17 10:43:13;;;;;;;9.48;2.10;;;21.30;72.10;;;;;;7385511;19;19926;-75
2023/04/17 10:46:02;;;;;;;7.93;1.83;;;20.40;72.70;;;;;;7389883;19;19914;-73
2023/04/17 10:48:27;;;;;;;7.07;1.95;;;20.10;74.80;;;;;;7395541;19;19922;-76
2023/04/17 10:50:56;;;;;;;7.63;1.70;;;20.50;74.50;;;;;;7395225;19;20028;-74
2023/04/17 10:53:42;;;;;;;12.77;2.33;;;19.40;77.50;;;;;;7397642;19;19965;-76
2023/04/17 10:56:10;;;;;;;6.15;1.58;;;19.50;79.50;;;;;;7389222;19;19923;-75
2023/04/17 10:58:57;;;;;;;10.13;1.73;;;20.00;78.10;;;;;;7396349;19;19910;-75
2023/04/17 11:01:30;;;;;;;9.45;1.52;;;18.70;82.90;;;;;;7397917;19;19935;-74
2023/04/17 11:03:58;;;;;;;6.18;1.40;;;19.50;81.50;;;;;;7391959;19;19926;-75
2023/04/17 11:06:30;;;;;;;7.00;1.95;;;19.20;82.30;;;;;;7395251;19;19966;-75
2023/04/17 11:08:57;;;;;;;8.75;2.22;;;19.30;83.30;;;;;;7395452;19;20361;-75
2023/04/17 11:11:22;;;;;;;;;;;19.40;78.40;;;;;;7401083;19;19942;-76
2023/04/17 11:13:48;;;;;;;7.97;1.58;;;20.00;76.50;;;;;;7399539;19;19942;-74
2023/04/17 11:16:14;;;;;;;9.85;1.50;;;19.50;77.50;;;;;;7392618;19;19930;-74
2023/04/17 11:18:44;;;;;;;8.35;1.80;;;19.30;78.00;;;;;;7392549;19;20345;-74
2023/04/17 11:21:14;;;;;;;8.95;1.60;;;17.90;81.70;;;;;;7362821;19;19930;-75
2023/04/17 11:23:48;;;;;;;4.53;1.30;;;18.30;81.60;;;;;;7396460;19;20365;-74
2023/04/17 11:26:14;;;;;;;10.57;1.90;;;18.90;80.50;;;;;;7398747;19;19923;-75
2023/04/17 11:28:40;;;;;;;11.80;2.28;;;18.40;81.10;;;;;;7400146;19;19915;-74
2023/04/17 11:31:06;;;;;;;7.25;1.25;;;19.50;81.20;;;;;;7391820;19;19922;-75
2023/04/17 11:33:35;;;;;;;8.43;2.03;;;20.40;79.80;;;;;;7400383;19;20377;-74
2023/04/17 11:36:03;;;;;;;10.25;1.45;;;19.30;79.40;;;;;;7398491;19;20478;-75
2023/04/17 11:38:29;;;;;;;7.75;1.50;;;19.20;80.70;;;;;;7375944;19;19918;-75
2023/04/17 11:41:00;;;;;;;9.35;1.60;;;18.10;84.90;;;;;;7395358;19;19914;-75
2023/04/17 11:43:27;;;;;;;10.32;1.77;;;18.20;83.80;;;;;;7388730;19;19911;-75
2023/04/17 11:46:00;;;;;;;9.15;1.60;;;18.50;84.20;;;;;;7388744;19;20346;-76
2023/04/17 11:48:27;;;;;;;8.60;1.95;;;19.10;84.60;;;;;;7402738;19;19936;-77
2023/04/17 11:51:02;;;;;;;8.75;2.00;;;18.60;82.60;;;;;;7400940;19;19922;-76
2023/04/17 11:53:28;;;;;;;8.43;1.70;;;18.50;83.20;;;;;;7398387;19;20010;-75
2023/04/17 11:56:14;;;;;;;9.63;2.20;;;19.30;81.60;;;;;;7368908;19;19937;-75
2023/04/17 11:58:50;;;;;;;7.70;1.35;;;19.20;81.20;;;;;;7401607;19;19911;-76
2023/04/17 12:01:17;;;;;;;9.70;1.98;;;19.70;80.30;;;;;;7400433;19;19910;-75
2023/04/17 12:03:43;;;;;;;7.60;2.22;;;19.80;80.10;;;;;;7399586;19;19915;-76
2023/04/17 12:06:12;;;;;;;10.63;1.98;;;19.70;77.50;;;;;;7366175;19;19919;-75
2023/04/17 12:08:49;;;;;;;10.23;2.10;;;20.00;77.10;;;;;;7402876;19;20350;-76
2023/04/17 12:11:29;;;;;;;7.20;1.77;;;19.00;77.70;;;;;;7398142;19;19938;-76
2023/04/17 12:13:56;;;;;;;7.40;1.73;;;20.30;76.90;;;;;;7398418;19;19925;-76
2023/04/17 12:16:23;;;;;;;;;;;20.10;76.30;;;;;;7400516;19;19937;-76
2023/04/17 12:18:49;;;;;;;7.00;2.05;;;19.20;76.60;;;;;;7396869;19;19922;-76
2023/04/17 12:21:15;;;;;;;8.38;1.83;;;19.40;78.20;;;;;;7389022;19;19983;-76
2023/04/17 12:23:41;;;;;;;13.35;2.10;;;19.80;75.90;;;;;;7393022;19;19932;-75
2023/04/17 12:26:08;;;;;;;5.32;1.77;;;20.40;76.20;;;;;;7393040;19;19915;-74
2023/04/17 12:28:34;;;;;;;9.32;2.05;;;19.80;76.10;;;;;;7396182;19;19907;-76
2023/04/17 12:31:00;;;;;;;11.65;2.25;;;19.00;78.50;;;;;;7398020;19;19925;-75
2023/04/17 12:33:26;;;;;;;13.00;3.60;;;19.80;76.50;;;;;;7397989;19;20240;-75
2023/04/17 12:35:52;;;;;;;11.18;1.90;;;19.50;78.40;;;;;;7397535;19;20517;-74
2023/04/17 12:38:17;;;;;;;7.70;1.85;;;20.30;76.50;;;;;;7399403;19;19911;-74
2023/04/17 12:40:44;;;;;;;9.68;1.85;;;20.30;74.90;;;;;;7392521;19;19934;-76
2023/04/17 12:43:13;;;;;;;7.13;2.22;;;21.20;73.60;;;;;;7391299;19;19914;-74
2023/04/17 12:45:40;;;;;;;7.43;1.88;;;20.70;71.80;;;;;;7390280;19;19927;-76
2023/04/17 12:48:07;;;;;;;10.48;2.15;;;20.80;72.80;;;;;;7399993;19;19914;-75